sensor_id;sensor_type;location;lat;lon;timestamp;pressure;altitude;pressure_sealevel;temperature;humidity
17054;BME280;8643;48.824;11.422;2023-02-08T00:01:29;98913.06;;;-6.74;100.00
17054;BME280;8643;48.824;11.422;2023-02-08T00:03:58;98914.69;;;-6.73;100.00
17054;BME280;8643;48.824;11.422;2023-02-08T00:06:27;98911.03;;;-6.72;100.00
17054;BME280;8643;48.824;11.422;2023-02-08T00:08:56;98907.56;;;-6.73;100.00
17054;BME280;8643;48.824;11.422;2023-02-08T00:11:24;98910.22;;;-6.73;100.00
17054;BME280;8643;48.824;11.422;2023-02-08T00:13:57;98912.53;;;-6.78;100.00
17054;BME280;8643;48.824;11.422;2023-02-08T00:16:25;98909.72;;;-6.85;100.00
17054;BME280;8643;48.824;11.422;2023-02-08T00:18:57;98916.94;;;-6.93;100.00
17054;BME280;8643;48.824;11.422;2023-02-08T00:21:26;98911.78;;;-6.95;100.00
17054;BME280;8643;48.824;11.422;2023-02-08T00:23:54;98898.63;;;-6.96;100.00
17054;BME280;8643;48.824;11.422;2023-02-08T00:26:23;98911.94;;;-6.96;100.00
17054;BME280;8643;48.824;11.422;2023-02-08T00:28:52;98912.94;;;-6.97;100.00
17054;BME280;8643;48.824;11.422;2023-02-08T00:31:20;98910.63;;;-7.01;100.00
17054;BME280;8643;48.824;11.422;2023-02-08T00:33:49;98909.31;;;-7.05;100.00
17054;BME280;8643;48.824;11.422;2023-02-08T00:36:18;98914.16;;;-7.08;100.00
17054;BME280;8643;48.824;11.422;2023-02-08T00:38:47;98907.00;;;-7.16;100.00
17054;BME280;8643;48.824;11.422;2023-02-08T00:41:15;98917.00;;;-7.18;100.00
17054;BME280;8643;48.824;11.422;2023-02-08T00:43:47;98908.19;;;-7.19;100.00
17054;BME280;8643;48.824;11.422;2023-02-08T00:46:15;98914.00;;;-7.15;100.00
17054;BME280;8643;48.824;11.422;2023-02-08T00:48:44;98917.16;;;-7.20;100.00
17054;BME280;8643;48.824;11.422;2023-02-08T00:51:13;98909.84;;;-7.26;100.00
17054;BME280;8643;48.824;11.422;2023-02-08T00:53:44;98910.50;;;-7.24;100.00
17054;BME280;8643;48.824;11.422;2023-02-08T00:56:14;98912.19;;;-7.31;100.00
17054;BME280;8643;48.824;11.422;2023-02-08T00:58:43;98921.00;;;-7.30;100.00
17054;BME280;8643;48.824;11.422;2023-02-08T01:01:12;98914.69;;;-7.29;100.00
17054;BME280;8643;48.824;11.422;2023-02-08T01:03:41;98919.50;;;-7.33;100.00
17054;BME280;8643;48.824;11.422;2023-02-08T01:06:14;98920.19;;;-7.39;100.00
17054;BME280;8643;48.824;11.422;2023-02-08T01:08:45;98917.69;;;-7.41;100.00
17054;BME280;8643;48.824;11.422;2023-02-08T01:11:17;98920.19;;;-7.39;100.00
17054;BME280;8643;48.824;11.422;2023-02-08T01:13:48;98917.84;;;-7.34;100.00
17054;BME280;8643;48.824;11.422;2023-02-08T01:16:20;98920.34;;;-7.32;100.00
17054;BME280;8643;48.824;11.422;2023-02-08T01:18:53;98925.16;;;-7.36;100.00
17054;BME280;8643;48.824;11.422;2023-02-08T01:21:25;98920.19;;;-7.39;100.00
17054;BME280;8643;48.824;11.422;2023-02-08T01:23:56;98925.00;;;-7.34;100.00
17054;BME280;8643;48.824;11.422;2023-02-08T01:26:26;98924.00;;;-7.33;100.00
17054;BME280;8643;48.824;11.422;2023-02-08T01:28:56;98928.97;;;-7.30;100.00
17054;BME280;8643;48.824;11.422;2023-02-08T01:31:28;98920.50;;;-7.26;100.00
17054;BME280;8643;48.824;11.422;2023-02-08T01:34:00;98913.50;;;-7.27;100.00
17054;BME280;8643;48.824;11.422;2023-02-08T01:36:32;98915.50;;;-7.29;100.00
17054;BME280;8643;48.824;11.422;2023-02-08T01:39:05;98915.84;;;-7.32;100.00
17054;BME280;8643;48.824;11.422;2023-02-08T01:41:37;98908.69;;;-7.31;100.00
17054;BME280;8643;48.824;11.422;2023-02-08T01:47:10;98906.84;;;-7.23;100.00
17054;BME280;8643;48.824;11.422;2023-02-08T01:49:39;98909.34;;;-7.21;100.00
17054;BME280;8643;48.824;11.422;2023-02-08T01:52:12;98905.34;;;-7.25;100.00
17054;BME280;8643;48.824;11.422;2023-02-08T01:54:49;98912.84;;;-7.29;100.00
17054;BME280;8643;48.824;11.422;2023-02-08T01:57:20;98908.00;;;-7.33;100.00
17054;BME280;8643;48.824;11.422;2023-02-08T01:59:53;98909.03;;;-7.34;100.00
17054;BME280;8643;48.824;11.422;2023-02-08T02:02:25;98902.84;;;-7.35;100.00
17054;BME280;8643;48.824;11.422;2023-02-08T02:04:55;98911.00;;;-7.37;100.00
17054;BME280;8643;48.824;11.422;2023-02-08T02:07:27;98906.72;;;-7.38;100.00
17054;BME280;8643;48.824;11.422;2023-02-08T02:10:09;98907.69;;;-7.30;100.00
17054;BME280;8643;48.824;11.422;2023-02-08T02:12:41;98908.38;;;-7.28;100.00
17054;BME280;8643;48.824;11.422;2023-02-08T02:15:10;98900.38;;;-7.28;100.00
17054;BME280;8643;48.824;11.422;2023-02-08T02:17:39;98885.41;;;-7.29;100.00
17054;BME280;8643;48.824;11.422;2023-02-08T02:20:19;98888.06;;;-7.29;100.00
17054;BME280;8643;48.824;11.422;2023-02-08T02:23:29;98896.03;;;-7.29;100.00
17054;BME280;8643;48.824;11.422;2023-02-08T02:26:52;98889.91;;;-7.30;100.00
17054;BME280;8643;48.824;11.422;2023-02-08T02:33:22;98886.72;;;-7.33;100.00
17054;BME280;8643;48.824;11.422;2023-02-08T02:36:06;98880.91;;;-7.29;100.00
17054;BME280;8643;48.824;11.422;2023-02-08T02:38:54;98887.56;;;-7.25;100.00
17054;BME280;8643;48.824;11.422;2023-02-08T02:41:43;98881.91;;;-7.22;100.00
17054;BME280;8643;48.824;11.422;2023-02-08T02:44:47;98884.22;;;-7.19;100.00
17054;BME280;8643;48.824;11.422;2023-02-08T02:47:23;98886.19;;;-7.21;100.00
17054;BME280;8643;48.824;11.422;2023-02-08T02:50:02;98886.69;;;-7.17;100.00
17054;BME280;8643;48.824;11.422;2023-02-08T02:52:41;98885.50;;;-7.06;100.00
17054;BME280;8643;48.824;11.422;2023-02-08T02:55:15;98878.88;;;-7.10;100.00
17054;BME280;8643;48.824;11.422;2023-02-08T02:57:49;98880.03;;;-7.13;100.00
17054;BME280;8643;48.824;11.422;2023-02-08T03:00:23;98879.22;;;-7.22;100.00
17054;BME280;8643;48.824;11.422;2023-02-08T03:02:57;98880.06;;;-7.21;100.00
17054;BME280;8643;48.824;11.422;2023-02-08T03:05:28;98879.88;;;-7.20;100.00
17054;BME280;8643;48.824;11.422;2023-02-08T03:11:24;98881.34;;;-7.17;100.00
17054;BME280;8643;48.824;11.422;2023-02-08T03:14:13;98879.38;;;-7.15;100.00
17054;BME280;8643;48.824;11.422;2023-02-08T03:17:01;98884.03;;;-7.17;100.00
17054;BME280;8643;48.824;11.422;2023-02-08T03:19:36;98878.53;;;-7.15;100.00
17054;BME280;8643;48.824;11.422;2023-02-08T03:22:13;98871.22;;;-7.13;100.00
17054;BME280;8643;48.824;11.422;2023-02-08T03:24:52;98873.72;;;-7.12;100.00
17054;BME280;8643;48.824;11.422;2023-02-08T03:27:30;98879.38;;;-7.15;100.00
17054;BME280;8643;48.824;11.422;2023-02-08T03:30:08;98880.19;;;-7.14;100.00
17054;BME280;8643;48.824;11.422;2023-02-08T03:32:45;98882.53;;;-7.11;100.00
17054;BME280;8643;48.824;11.422;2023-02-08T03:35:19;98881.69;;;-7.04;100.00
17054;BME280;8643;48.824;11.422;2023-02-08T03:37:57;98879.34;;;-6.98;100.00
17054;BME280;8643;48.824;11.422;2023-02-08T03:40:31;98876.03;;;-7.09;100.00
17054;BME280;8643;48.824;11.422;2023-02-08T03:43:07;98879.56;;;-7.16;100.00
17054;BME280;8643;48.824;11.422;2023-02-08T03:45:42;98878.38;;;-7.22;100.00
17054;BME280;8643;48.824;11.422;2023-02-08T03:48:17;98876.44;;;-7.28;100.00
17054;BME280;8643;48.824;11.422;2023-02-08T03:50:51;98877.75;;;-7.32;100.00
17054;BME280;8643;48.824;11.422;2023-02-08T03:53:24;98875.91;;;-7.40;100.00
17054;BME280;8643;48.824;11.422;2023-02-08T03:56:00;98871.63;;;-7.41;100.00
17054;BME280;8643;48.824;11.422;2023-02-08T03:58:37;98875.59;;;-7.37;100.00
17054;BME280;8643;48.824;11.422;2023-02-08T04:01:16;98879.28;;;-7.38;100.00
17054;BME280;8643;48.824;11.422;2023-02-08T04:03:48;98887.06;;;-7.28;100.00
17054;BME280;8643;48.824;11.422;2023-02-08T04:06:20;98877.56;;;-7.23;100.00
17054;BME280;8643;48.824;11.422;2023-02-08T04:08:54;98870.56;;;-7.24;100.00
17054;BME280;8643;48.824;11.422;2023-02-08T04:11:22;98870.25;;;-7.29;100.00
17054;BME280;8643;48.824;11.422;2023-02-08T04:13:51;98873.56;;;-7.35;100.00
17054;BME280;8643;48.824;11.422;2023-02-08T04:16:19;98868.94;;;-7.33;100.00
17054;BME280;8643;48.824;11.422;2023-02-08T04:18:48;98869.63;;;-7.39;100.00
17054;BME280;8643;48.824;11.422;2023-02-08T04:21:16;98872.78;;;-7.44;100.00
17054;BME280;8643;48.824;11.422;2023-02-08T04:23:45;98862.13;;;-7.44;100.00
17054;BME280;8643;48.824;11.422;2023-02-08T04:26:15;98857.47;;;-7.42;100.00
17054;BME280;8643;48.824;11.422;2023-02-08T04:28:43;98858.81;;;-7.46;100.00
17054;BME280;8643;48.824;11.422;2023-02-08T04:31:12;98854.31;;;-7.45;100.00
17054;BME280;8643;48.824;11.422;2023-02-08T04:33:40;98843.31;;;-7.42;100.00
17054;BME280;8643;48.824;11.422;2023-02-08T04:36:09;98846.31;;;-7.45;100.00
17054;BME280;8643;48.824;11.422;2023-02-08T04:38:37;98852.16;;;-7.50;100.00
17054;BME280;8643;48.824;11.422;2023-02-08T04:41:06;98855.31;;;-7.55;100.00
17054;BME280;8643;48.824;11.422;2023-02-08T04:43:36;98842.69;;;-7.52;100.00
17054;BME280;8643;48.824;11.422;2023-02-08T04:46:08;98848.84;;;-7.52;100.00
17054;BME280;8643;48.824;11.422;2023-02-08T04:48:37;98843.00;;;-7.39;100.00
17054;BME280;8643;48.824;11.422;2023-02-08T04:51:05;98849.00;;;-7.45;100.00
17054;BME280;8643;48.824;11.422;2023-02-08T04:53:34;98840.66;;;-7.42;100.00
17054;BME280;8643;48.824;11.422;2023-02-08T04:56:03;98846.13;;;-7.35;100.00
17054;BME280;8643;48.824;11.422;2023-02-08T04:58:32;98844.84;;;-7.40;100.00
17054;BME280;8643;48.824;11.422;2023-02-08T05:01:05;98841.50;;;-7.42;100.00
17054;BME280;8643;48.824;11.422;2023-02-08T05:03:35;98848.81;;;-7.44;100.00
17054;BME280;8643;48.824;11.422;2023-02-08T05:06:04;98840.84;;;-7.52;100.00
17054;BME280;8643;48.824;11.422;2023-02-08T05:08:32;98849.66;;;-7.60;100.00
17054;BME280;8643;48.824;11.422;2023-02-08T05:11:00;98849.34;;;-7.57;100.00
17054;BME280;8643;48.824;11.422;2023-02-08T05:13:29;98851.19;;;-7.57;100.00
17054;BME280;8643;48.824;11.422;2023-02-08T05:15:58;98847.34;;;-7.55;100.00
17054;BME280;8643;48.824;11.422;2023-02-08T05:18:29;98839.00;;;-7.51;100.00
17054;BME280;8643;48.824;11.422;2023-02-08T05:20:59;98842.38;;;-7.49;100.00
17054;BME280;8643;48.824;11.422;2023-02-08T05:23:28;98850.50;;;-7.51;100.00
17054;BME280;8643;48.824;11.422;2023-02-08T05:25:58;98843.19;;;-7.49;100.00
17054;BME280;8643;48.824;11.422;2023-02-08T05:28:26;98848.66;;;-7.42;100.00
17054;BME280;8643;48.824;11.422;2023-02-08T05:30:55;98848.66;;;-7.42;100.00
17054;BME280;8643;48.824;11.422;2023-02-08T05:33:24;98849.47;;;-7.42;100.00
17054;BME280;8643;48.824;11.422;2023-02-08T05:35:53;98851.16;;;-7.49;100.00
17054;BME280;8643;48.824;11.422;2023-02-08T05:38:22;98850.34;;;-7.49;100.00
17054;BME280;8643;48.824;11.422;2023-02-08T05:40:50;98857.78;;;-7.45;100.00
17054;BME280;8643;48.824;11.422;2023-02-08T05:43:19;98860.28;;;-7.35;100.00
17054;BME280;8643;48.824;11.422;2023-02-08T05:45:49;98859.75;;;-7.30;100.00
17054;BME280;8643;48.824;11.422;2023-02-08T05:48:19;98856.09;;;-7.21;100.00
17054;BME280;8643;48.824;11.422;2023-02-08T05:50:47;98858.41;;;-7.18;100.00
17054;BME280;8643;48.824;11.422;2023-02-08T05:53:17;98874.06;;;-7.23;100.00
17054;BME280;8643;48.824;11.422;2023-02-08T05:55:46;98863.25;;;-7.13;100.00
17054;BME280;8643;48.824;11.422;2023-02-08T05:58:16;98871.16;;;-6.97;100.00
17054;BME280;8643;48.824;11.422;2023-02-08T06:00:45;98868.94;;;-6.85;100.00
17054;BME280;8643;48.824;11.422;2023-02-08T06:03:14;98870.97;;;-6.87;100.00
17054;BME280;8643;48.824;11.422;2023-02-08T06:05:43;98870.78;;;-6.86;100.00
17054;BME280;8643;48.824;11.422;2023-02-08T06:08:12;98872.44;;;-6.85;100.00
17054;BME280;8643;48.824;11.422;2023-02-08T06:10:42;98875.44;;;-6.88;100.00
17054;BME280;8643;48.824;11.422;2023-02-08T06:13:11;98875.66;;;-6.89;100.00
17054;BME280;8643;48.824;11.422;2023-02-08T06:15:40;98873.16;;;-6.91;100.00
17054;BME280;8643;48.824;11.422;2023-02-08T06:18:09;98876.81;;;-6.92;100.00
17054;BME280;8643;48.824;11.422;2023-02-08T06:20:37;98879.47;;;-6.92;100.00
17054;BME280;8643;48.824;11.422;2023-02-08T06:23:06;98877.16;;;-6.95;100.00
17054;BME280;8643;48.824;11.422;2023-02-08T06:25:35;98880.81;;;-6.96;100.00
17054;BME280;8643;48.824;11.422;2023-02-08T06:28:05;98882.31;;;-6.93;100.00
17054;BME280;8643;48.824;11.422;2023-02-08T06:30:37;98880.81;;;-6.96;100.00
17054;BME280;8643;48.824;11.422;2023-02-08T06:33:06;98876.66;;;-6.98;100.00
17054;BME280;8643;48.824;11.422;2023-02-08T06:35:34;98882.50;;;-7.03;100.00
17054;BME280;8643;48.824;11.422;2023-02-08T06:38:03;98881.03;;;-7.14;100.00
17054;BME280;8643;48.824;11.422;2023-02-08T06:40:31;98885.50;;;-7.06;100.00
17054;BME280;8643;48.824;11.422;2023-02-08T06:43:00;98875.50;;;-7.04;100.00
17054;BME280;8643;48.824;11.422;2023-02-08T06:45:30;98882.34;;;-7.02;100.00
17054;BME280;8643;48.824;11.422;2023-02-08T06:47:59;98880.00;;;-7.05;100.00
17054;BME280;8643;48.824;11.422;2023-02-08T06:50:27;98873.84;;;-7.05;100.00
17054;BME280;8643;48.824;11.422;2023-02-08T06:52:55;98878.84;;;-7.02;100.00
17054;BME280;8643;48.824;11.422;2023-02-08T06:55:24;98875.16;;;-7.01;100.00
17054;BME280;8643;48.824;11.422;2023-02-08T06:57:53;98872.81;;;-6.96;100.00
17054;BME280;8643;48.824;11.422;2023-02-08T07:00:21;98880.13;;;-6.90;100.00
17054;BME280;8643;48.824;11.422;2023-02-08T07:02:51;98875.97;;;-6.84;100.00
17054;BME280;8643;48.824;11.422;2023-02-08T07:05:20;98876.56;;;-6.74;100.00
17054;BME280;8643;48.824;11.422;2023-02-08T07:07:48;98882.38;;;-6.70;100.00
17054;BME280;8643;48.824;11.422;2023-02-08T07:10:17;98884.66;;;-6.59;100.00
17054;BME280;8643;48.824;11.422;2023-02-08T07:12:46;98880.97;;;-6.50;100.00
17054;BME280;8643;48.824;11.422;2023-02-08T07:15:15;98877.06;;;-6.39;100.00
17054;BME280;8643;48.824;11.422;2023-02-08T07:17:44;98876.31;;;-6.24;100.00
17054;BME280;8643;48.824;11.422;2023-02-08T07:20:14;98883.91;;;-6.13;100.00
17054;BME280;8643;48.824;11.422;2023-02-08T07:22:42;98887.19;;;-6.03;100.00
17054;BME280;8643;48.824;11.422;2023-02-08T07:25:11;98880.78;;;-5.79;100.00
17054;BME280;8643;48.824;11.422;2023-02-08T07:27:39;98879.66;;;-5.61;100.00
17054;BME280;8643;48.824;11.422;2023-02-08T07:30:09;98881.00;;;-5.42;100.00
17054;BME280;8643;48.824;11.422;2023-02-08T07:32:38;98879.34;;;-5.28;100.00
17054;BME280;8643;48.824;11.422;2023-02-08T07:35:07;98878.34;;;-5.27;100.00
17054;BME280;8643;48.824;11.422;2023-02-08T07:37:37;98877.06;;;-5.17;100.00
17054;BME280;8643;48.824;11.422;2023-02-08T07:40:06;98875.06;;;-5.00;100.00
17054;BME280;8643;48.824;11.422;2023-02-08T07:42:34;98875.88;;;-4.84;100.00
17054;BME280;8643;48.824;11.422;2023-02-08T07:45:14;98876.44;;;-4.74;100.00
17054;BME280;8643;48.824;11.422;2023-02-08T07:47:45;98875.09;;;-4.48;100.00
17054;BME280;8643;48.824;11.422;2023-02-08T07:50:14;98881.84;;;-4.52;100.00
17054;BME280;8643;48.824;11.422;2023-02-08T07:52:44;98878.28;;;-4.23;100.00
17054;BME280;8643;48.824;11.422;2023-02-08T07:55:14;98868.09;;;-4.13;100.00
17054;BME280;8643;48.824;11.422;2023-02-08T07:57:43;98870.63;;;-4.05;100.00
17054;BME280;8643;48.824;11.422;2023-02-08T08:00:15;98858.72;;;-3.80;100.00
17054;BME280;8643;48.824;11.422;2023-02-08T08:02:44;98872.28;;;-3.60;100.00
17054;BME280;8643;48.824;11.422;2023-02-08T08:05:12;98871.31;;;-3.53;100.00
17054;BME280;8643;48.824;11.422;2023-02-08T08:07:41;98870.03;;;-3.35;100.00
17054;BME280;8643;48.824;11.422;2023-02-08T08:10:10;98880.59;;;-3.27;99.28
17054;BME280;8643;48.824;11.422;2023-02-08T08:12:39;98879.59;;;-2.91;100.00
17054;BME280;8643;48.824;11.422;2023-02-08T08:15:08;98878.91;;;-2.65;97.64
17054;BME280;8643;48.824;11.422;2023-02-08T08:17:36;98876.59;;;-2.74;94.05
17054;BME280;8643;48.824;11.422;2023-02-08T08:20:09;98881.81;;;-2.60;94.64
17054;BME280;8643;48.824;11.422;2023-02-08T08:22:38;98883.50;;;-2.04;94.12
17054;BME280;8643;48.824;11.422;2023-02-08T08:25:10;98893.88;;;-1.60;90.97
17054;BME280;8643;48.824;11.422;2023-02-08T08:27:39;98888.94;;;-1.23;88.74
17054;BME280;8643;48.824;11.422;2023-02-08T08:30:10;98884.81;;;-1.33;88.67
17054;BME280;8643;48.824;11.422;2023-02-08T08:32:39;98888.09;;;-1.44;87.37
17054;BME280;8643;48.824;11.422;2023-02-08T08:35:08;98888.13;;;-1.17;87.36
17054;BME280;8643;48.824;11.422;2023-02-08T08:37:37;98883.75;;;-0.98;85.50
17054;BME280;8643;48.824;11.422;2023-02-08T08:40:08;98887.22;;;-0.78;84.36
17054;BME280;8643;48.824;11.422;2023-02-08T08:42:37;98886.63;;;-0.80;86.64
17054;BME280;8643;48.824;11.422;2023-02-08T08:45:08;98878.19;;;-1.10;85.29
17054;BME280;8643;48.824;11.422;2023-02-08T08:47:37;98884.56;;;-0.84;83.42
17054;BME280;8643;48.824;11.422;2023-02-08T08:50:06;98880.94;;;-0.51;83.52
17054;BME280;8643;48.824;11.422;2023-02-08T08:52:35;98884.75;;;-0.21;80.40
17054;BME280;8643;48.824;11.422;2023-02-08T08:55:04;98882.75;;;-0.39;81.13
17054;BME280;8643;48.824;11.422;2023-02-08T08:57:32;98872.63;;;-0.43;83.00
17054;BME280;8643;48.824;11.422;2023-02-08T09:00:04;98892.38;;;-0.69;80.07
17054;BME280;8643;48.824;11.422;2023-02-08T09:02:33;98885.50;;;-0.07;80.53
17054;BME280;8643;48.824;11.422;2023-02-08T09:05:01;98881.34;;;0.29;79.13
17054;BME280;8643;48.824;11.422;2023-02-08T09:07:32;98879.56;;;0.23;78.44
17054;BME280;8643;48.824;11.422;2023-02-08T09:10:00;98873.28;;;0.29;80.68
17054;BME280;8643;48.824;11.422;2023-02-08T09:12:29;98874.44;;;0.40;81.53
17054;BME280;8643;48.824;11.422;2023-02-08T09:14:58;98875.16;;;-0.03;79.30
17054;BME280;8643;48.824;11.422;2023-02-08T09:17:27;98873.75;;;0.20;80.59
17054;BME280;8643;48.824;11.422;2023-02-08T09:19:56;98885.72;;;-0.02;81.25
17054;BME280;8643;48.824;11.422;2023-02-08T09:22:24;98883.53;;;0.14;79.41
17054;BME280;8643;48.824;11.422;2023-02-08T09:24:53;98874.44;;;0.15;76.40
17054;BME280;8643;48.824;11.422;2023-02-08T09:27:22;98871.59;;;0.35;79.90
17054;BME280;8643;48.824;11.422;2023-02-08T09:29:50;98869.81;;;0.22;78.84
17054;BME280;8643;48.824;11.422;2023-02-08T09:32:18;98879.97;;;0.20;78.76
17054;BME280;8643;48.824;11.422;2023-02-08T09:34:48;98864.50;;;0.66;77.36
17054;BME280;8643;48.824;11.422;2023-02-08T09:37:17;98856.88;;;0.38;77.51
17054;BME280;8643;48.824;11.422;2023-02-08T09:39:45;98858.53;;;0.32;78.05
17054;BME280;8643;48.824;11.422;2023-02-08T09:42:31;98860.91;;;0.47;75.25
17054;BME280;8643;48.824;11.422;2023-02-08T09:45:29;98858.09;;;0.03;78.47
17054;BME280;8643;48.824;11.422;2023-02-08T09:48:15;98866.66;;;-0.45;83.37
17054;BME280;8643;48.824;11.422;2023-02-08T09:50:52;98864.13;;;-1.45;89.20
17054;BME280;8643;48.824;11.422;2023-02-08T09:53:29;98869.47;;;-1.92;91.87
17054;BME280;8643;48.824;11.422;2023-02-08T09:56:04;98866.66;;;-2.39;92.93
17054;BME280;8643;48.824;11.422;2023-02-08T09:58:37;98861.47;;;-2.47;96.59
17054;BME280;8643;48.824;11.422;2023-02-08T10:01:15;98857.25;;;-2.01;93.33
17054;BME280;8643;48.824;11.422;2023-02-08T10:03:47;98854.56;;;-1.01;90.78
17054;BME280;8643;48.824;11.422;2023-02-08T10:06:22;98850.53;;;-0.13;84.99
17054;BME280;8643;48.824;11.422;2023-02-08T10:08:51;98845.25;;;0.62;86.29
17054;BME280;8643;48.824;11.422;2023-02-08T10:11:50;98847.97;;;1.43;78.27
17054;BME280;8643;48.824;11.422;2023-02-08T10:14:47;98848.56;;;1.63;73.90
17054;BME280;8643;48.824;11.422;2023-02-08T10:17:44;98843.06;;;1.70;76.01
17054;BME280;8643;48.824;11.422;2023-02-08T10:20:32;98843.38;;;2.11;73.00
17054;BME280;8643;48.824;11.422;2023-02-08T10:23:33;98841.56;;;1.74;74.86
17054;BME280;8643;48.824;11.422;2023-02-08T10:26:13;98853.03;;;1.88;74.61
17054;BME280;8643;48.824;11.422;2023-02-08T10:29:10;98845.75;;;2.19;76.16
17054;BME280;8643;48.824;11.422;2023-02-08T10:34:58;98845.19;;;2.41;75.83
17054;BME280;8643;48.824;11.422;2023-02-08T10:37:31;98843.03;;;2.73;73.07
17054;BME280;8643;48.824;11.422;2023-02-08T10:40:23;98844.03;;;2.48;70.98
17054;BME280;8643;48.824;11.422;2023-02-08T10:43:05;98844.78;;;1.64;78.01
17054;BME280;8643;48.824;11.422;2023-02-08T10:45:47;98838.44;;;0.03;82.58
17054;BME280;8643;48.824;11.422;2023-02-08T10:48:37;98834.25;;;-0.77;83.02
17054;BME280;8643;48.824;11.422;2023-02-08T10:51:11;98833.25;;;-0.83;90.09
17054;BME280;8643;48.824;11.422;2023-02-08T10:53:43;98834.81;;;-0.62;90.96
17054;BME280;8643;48.824;11.422;2023-02-08T10:56:33;98822.56;;;-0.51;91.93
17054;BME280;8643;48.824;11.422;2023-02-08T10:59:13;98815.09;;;-1.01;92.04
17054;BME280;8643;48.824;11.422;2023-02-08T11:01:44;98814.72;;;-1.31;94.44
17054;BME280;8643;48.824;11.422;2023-02-08T11:04:15;98821.34;;;-1.40;92.23
17054;BME280;8643;48.824;11.422;2023-02-08T11:06:46;98822.38;;;-1.41;92.84
17054;BME280;8643;48.824;11.422;2023-02-08T11:09:25;98820.91;;;-1.31;98.69
17054;BME280;8643;48.824;11.422;2023-02-08T11:11:59;98807.06;;;-1.34;97.46
17054;BME280;8643;48.824;11.422;2023-02-08T11:14:34;98806.06;;;-1.40;95.28
17054;BME280;8643;48.824;11.422;2023-02-08T11:17:26;98799.59;;;-1.12;99.65
17054;BME280;8643;48.824;11.422;2023-02-08T11:19:57;98784.06;;;-1.03;100.00
17054;BME280;8643;48.824;11.422;2023-02-08T11:22:28;98779.94;;;-1.06;92.06
17054;BME280;8643;48.824;11.422;2023-02-08T11:25:01;98776.94;;;-0.78;97.18
17054;BME280;8643;48.824;11.422;2023-02-08T11:27:37;98779.88;;;-0.09;95.71
17054;BME280;8643;48.824;11.422;2023-02-08T11:30:22;98763.09;;;1.20;85.00
17054;BME280;8643;48.824;11.422;2023-02-08T11:33:19;98765.81;;;2.23;83.57
17054;BME280;8643;48.824;11.422;2023-02-08T11:36:03;98763.50;;;2.50;77.67
17054;BME280;8643;48.824;11.422;2023-02-08T11:38:37;98771.03;;;2.96;76.64
17054;BME280;8643;48.824;11.422;2023-02-08T11:41:15;98764.81;;;2.48;73.04
17054;BME280;8643;48.824;11.422;2023-02-08T11:43:58;98750.94;;;2.56;73.73
17054;BME280;8643;48.824;11.422;2023-02-08T11:46:32;98754.09;;;2.53;71.60
17054;BME280;8643;48.824;11.422;2023-02-08T11:49:04;98740.69;;;2.70;73.69
17054;BME280;8643;48.824;11.422;2023-02-08T11:51:35;98742.91;;;2.73;74.73
17054;BME280;8643;48.824;11.422;2023-02-08T11:54:05;98739.28;;;2.32;73.97
17054;BME280;8643;48.824;11.422;2023-02-08T11:56:34;98738.22;;;2.56;74.85
17054;BME280;8643;48.824;11.422;2023-02-08T11:59:18;98745.84;;;2.36;74.80
17054;BME280;8643;48.824;11.422;2023-02-08T12:01:48;98742.22;;;2.54;74.72
17054;BME280;8643;48.824;11.422;2023-02-08T12:04:17;98752.81;;;2.67;77.30
17054;BME280;8643;48.824;11.422;2023-02-08T12:07:20;98741.25;;;2.01;79.66
17054;BME280;8643;48.824;11.422;2023-02-08T12:10:18;98748.66;;;1.45;80.75
17054;BME280;8643;48.824;11.422;2023-02-08T12:13:17;98743.44;;;1.01;82.08
17054;BME280;8643;48.824;11.422;2023-02-08T12:16:08;98731.97;;;0.69;87.40
17054;BME280;8643;48.824;11.422;2023-02-08T12:19:10;98746.69;;;0.23;84.67
17054;BME280;8643;48.824;11.422;2023-02-08T12:21:55;98746.31;;;-0.06;90.82
17054;BME280;8643;48.824;11.422;2023-02-08T12:24:35;98736.41;;;-0.12;85.02
17054;BME280;8643;48.824;11.422;2023-02-08T12:27:23;98739.41;;;-0.27;90.24
17054;BME280;8643;48.824;11.422;2023-02-08T12:30:07;98738.31;;;-0.51;87.44
17054;BME280;8643;48.824;11.422;2023-02-08T12:33:06;98726.59;;;-0.32;92.16
17054;BME280;8643;48.824;11.422;2023-02-08T12:35:59;98726.47;;;0.57;89.32
17054;BME280;8643;48.824;11.422;2023-02-08T12:39:02;98721.91;;;2.51;76.66
17054;BME280;8643;48.824;11.422;2023-02-08T12:42:15;98713.03;;;2.80;71.20
17054;BME280;8643;48.824;11.422;2023-02-08T12:45:11;98714.72;;;3.21;70.54
17054;BME280;8643;48.824;11.422;2023-02-08T12:48:00;98704.84;;;3.15;70.08
17054;BME280;8643;48.824;11.422;2023-02-08T12:50:42;98701.56;;;3.01;68.06
17054;BME280;8643;48.824;11.422;2023-02-08T12:53:19;98687.22;;;3.01;67.70
17054;BME280;8643;48.824;11.422;2023-02-08T12:55:54;98693.94;;;2.98;72.76
17054;BME280;8643;48.824;11.422;2023-02-08T12:58:28;98705.53;;;2.70;65.23
17054;BME280;8643;48.824;11.422;2023-02-08T13:01:08;98699.88;;;3.53;68.38
17054;BME280;8643;48.824;11.422;2023-02-08T13:03:47;98697.63;;;4.12;64.23
17054;BME280;8643;48.824;11.422;2023-02-08T13:06:23;98684.34;;;3.48;64.11
17054;BME280;8643;48.824;11.422;2023-02-08T13:08:59;98686.03;;;3.37;66.20
17054;BME280;8643;48.824;11.422;2023-02-08T13:11:35;98680.88;;;3.98;64.10
17054;BME280;8643;48.824;11.422;2023-02-08T13:14:17;98674.72;;;4.03;58.07
17054;BME280;8643;48.824;11.422;2023-02-08T13:16:57;98674.88;;;3.79;60.40
17054;BME280;8643;48.824;11.422;2023-02-08T13:19:34;98665.34;;;3.94;62.09
17054;BME280;8643;48.824;11.422;2023-02-08T13:22:26;98653.44;;;4.29;63.58
17054;BME280;8643;48.824;11.422;2023-02-08T13:24:58;98659.66;;;4.12;64.60
17054;BME280;8643;48.824;11.422;2023-02-08T13:27:34;98656.97;;;4.51;62.86
17054;BME280;8643;48.824;11.422;2023-02-08T13:30:04;98649.66;;;3.79;64.17
17054;BME280;8643;48.824;11.422;2023-02-08T13:32:39;98656.66;;;3.92;63.34
17054;BME280;8643;48.824;11.422;2023-02-08T13:35:17;98662.44;;;3.66;59.42
17054;BME280;8643;48.824;11.422;2023-02-08T13:37:53;98652.03;;;3.92;63.95
17054;BME280;8643;48.824;11.422;2023-02-08T13:40:27;98650.16;;;4.10;60.76
17054;BME280;8643;48.824;11.422;2023-02-08T13:43:00;98651.53;;;4.29;59.93
17054;BME280;8643;48.824;11.422;2023-02-08T13:45:32;98649.69;;;4.35;59.95
17054;BME280;8643;48.824;11.422;2023-02-08T13:48:05;98645.13;;;3.84;61.19